Aérodrome :
LOGIN :

S'inscrire | Disclaimer

   EN    FR    IT 

 










Légende :    VFR   VFR Marginal   IFR   IFR Intensif   IFR Très Intensif
Visi : 
Plafond : 
>= 8 km
>= 3000ft
5 à 8 km
1000 à 3000 ft
1500m à 5 km
500 à 1000 ft
800 à 1500m
200 à 500 ft
< 800m
< 200 ft
Symboles :   Orages  Brouillard  Fortes neiges  Fortes précipitations  Vent > 20 kt
SIGMETs :   Divers  Orages  Givrage  Turbulence  Onde Orograph.  Cendres Volcan.






- Altitude de l'aérodrome : 1090 ft
- Code IATA : CFE


LFLC - Clermont-Ferrand Auvergne

DERNIER METAR :
  • 231700Z AUTO 14008KT 9999 -RA VCTS FEW046/// OVC090/// ///CB 17/14 Q1018 TEMPO SHRA

METARs EXPIRÉS :
  • 231630Z AUTO 10007KT 9999 -RA FEW034/// OVC092/// ///CB 18/14 Q1018 TEMPO SHRA
  • 231600Z AUTO VRB02KT 9999 -RA FEW035/// SCT076/// OVC090/// ///CB 19/14 Q1018 TEMPO VRB15G25KT 2000 TSRA
  • 231530Z AUTO 01007KT 350V050 9999 FEW037/// BKN068/// BKN100/// ///CB 20/13 Q1017 TEMPO VRB15G25KT 2000 TSRA
  • 231500Z AUTO 35011KT 9999 ///CB 20/13 Q1017 TEMPO VRB15G25KT 2000 TSRA
  • 231430Z AUTO 34011KT 9999 ///CB 20/14 Q1017 TEMPO VRB15G25KT 2000 TSRA

TAF AMD TAF LFLC
Valide du 23 à 13h jusqu'au 24 à 12h UTC


231307Z 2313/2412 34006KT 9999 SCT050
TEMPO 2313/2323 SHRA SCT040TCU
PROB40
TEMPO 2313/2317 VRB15G25KT 2000 TSRA BKN040CB
TEMPO 2323/2410 2000 +RA BKN008 SCT020CB
ATIS : +33 4 73 62 74 38



MET'MAP, la Météo Aéronautique d'un coup d'oeil ! - Copyright ORBIFLY Décembre 2007 - Disclaimer

ORBIFLY MET'MAP TEAM :

Programmation & Développement : Alexandra Zaïnal
Sur une idée originale de : Baudouin d'Aumeries
Assistance à la programmation : Marc-Olivier Méhu
Soutien technique & logistique : Manuel Goepfert

Contact : metmap@orbifly.com




SOURCES & CREDITS :

   NOAA